sensor_id;sensor_type;location;lat;lon;timestamp;pressure;altitude;pressure_sealevel;temperature;humidity
52032;BME280;38044;45.148;39.604;2024-02-28T00:01:04;102031.88;;;0.43;59.68
52032;BME280;38044;45.148;39.604;2024-02-28T00:03:30;102003.28;;;0.32;59.76
52032;BME280;38044;45.148;39.604;2024-02-28T00:05:57;102034.28;;;0.38;60.00
52032;BME280;38044;45.148;39.604;2024-02-28T00:08:23;102023.06;;;0.36;59.96
52032;BME280;38044;45.148;39.604;2024-02-28T00:10:49;102037.91;;;0.37;60.37
52032;BME280;38044;45.148;39.604;2024-02-28T00:13:15;102030.97;;;0.36;60.30
52032;BME280;38044;45.148;39.604;2024-02-28T00:15:41;102039.28;;;0.33;60.74
52032;BME280;38044;45.148;39.604;2024-02-28T00:18:07;102036.00;;;0.31;60.69
52032;BME280;38044;45.148;39.604;2024-02-28T00:20:33;102020.72;;;0.26;60.68
52032;BME280;38044;45.148;39.604;2024-02-28T00:22:59;102027.81;;;0.26;60.90
52032;BME280;38044;45.148;39.604;2024-02-28T00:25:25;102037.78;;;0.24;61.15
52032;BME280;38044;45.148;39.604;2024-02-28T00:27:51;102012.44;;;0.14;61.19
52032;BME280;38044;45.148;39.604;2024-02-28T00:30:17;102032.84;;;0.20;61.32
52032;BME280;38044;45.148;39.604;2024-02-28T00:32:43;102031.94;;;0.13;61.57
52032;BME280;38044;45.148;39.604;2024-02-28T00:35:09;102018.00;;;0.05;61.83
52032;BME280;38044;45.148;39.604;2024-02-28T00:37:35;102025.50;;;0.01;62.07
52032;BME280;38044;45.148;39.604;2024-02-28T00:40:01;102035.59;;;0.12;62.04
52032;BME280;38044;45.148;39.604;2024-02-28T00:42:27;102041.88;;;0.11;61.92
52032;BME280;38044;45.148;39.604;2024-02-28T00:44:53;102047.09;;;0.05;62.18
52032;BME280;38044;45.148;39.604;2024-02-28T00:47:18;102053.94;;;-0.01;62.39
52032;BME280;38044;45.148;39.604;2024-02-28T00:49:44;102047.66;;;0.00;62.40
52032;BME280;38044;45.148;39.604;2024-02-28T00:52:10;102043.94;;;-0.06;62.69
52032;BME280;38044;45.148;39.604;2024-02-28T00:54:36;102033.81;;;-0.02;62.97
52032;BME280;38044;45.148;39.604;2024-02-28T00:57:03;102034.19;;;-0.05;62.88
52032;BME280;38044;45.148;39.604;2024-02-28T00:59:28;102038.44;;;-0.04;62.93
52032;BME280;38044;45.148;39.604;2024-02-28T01:01:54;102047.28;;;0.03;62.99
52032;BME280;38044;45.148;39.604;2024-02-28T01:04:20;102055.03;;;0.05;62.80
52032;BME280;38044;45.148;39.604;2024-02-28T01:06:46;102054.94;;;-0.02;63.05
52032;BME280;38044;45.148;39.604;2024-02-28T01:09:12;102058.13;;;-0.07;63.36
52032;BME280;38044;45.148;39.604;2024-02-28T01:11:38;102053.88;;;-0.08;63.47
52032;BME280;38044;45.148;39.604;2024-02-28T01:14:04;102057.97;;;-0.05;63.39
52032;BME280;38044;45.148;39.604;2024-02-28T01:16:30;102052.03;;;-0.07;63.57
52032;BME280;38044;45.148;39.604;2024-02-28T01:18:56;102054.78;;;-0.15;63.79
52032;BME280;38044;45.148;39.604;2024-02-28T01:21:22;102057.78;;;-0.18;63.88
52032;BME280;38044;45.148;39.604;2024-02-28T01:23:48;102047.66;;;-0.30;63.78
52032;BME280;38044;45.148;39.604;2024-02-28T01:26:14;102051.03;;;-0.21;63.97
52032;BME280;38044;45.148;39.604;2024-02-28T01:28:40;102062.34;;;-0.27;63.95
52032;BME280;38044;45.148;39.604;2024-02-28T01:31:08;102053.69;;;-0.36;64.27
52032;BME280;38044;45.148;39.604;2024-02-28T01:33:34;102064.63;;;-0.39;64.34
52032;BME280;38044;45.148;39.604;2024-02-28T01:36:00;102062.97;;;-0.40;64.33
52032;BME280;38044;45.148;39.604;2024-02-28T01:38:26;102059.59;;;-0.49;64.59
52032;BME280;38044;45.148;39.604;2024-02-28T01:40:52;102049.56;;;-0.53;64.62
52032;BME280;38044;45.148;39.604;2024-02-28T01:43:18;102046.13;;;-0.54;64.90
52032;BME280;38044;45.148;39.604;2024-02-28T01:45:44;102046.66;;;-0.58;65.17
52032;BME280;38044;45.148;39.604;2024-02-28T01:48:10;102046.19;;;-0.62;65.12
52032;BME280;38044;45.148;39.604;2024-02-28T01:50:38;102055.94;;;-0.62;65.52
52032;BME280;38044;45.148;39.604;2024-02-28T01:53:06;102057.56;;;-0.61;65.53
52032;BME280;38044;45.148;39.604;2024-02-28T01:55:37;102032.69;;;-0.82;65.77
52032;BME280;38044;45.148;39.604;2024-02-28T01:58:04;102056.47;;;-0.67;65.88
52032;BME280;38044;45.148;39.604;2024-02-28T02:00:33;102057.78;;;-0.63;66.20
52032;BME280;38044;45.148;39.604;2024-02-28T02:03:02;102062.22;;;-0.63;66.39
52032;BME280;38044;45.148;39.604;2024-02-28T02:05:29;102057.66;;;-0.70;66.59
52032;BME280;38044;45.148;39.604;2024-02-28T02:07:57;102063.94;;;-0.71;66.78
52032;BME280;38044;45.148;39.604;2024-02-28T02:10:25;102064.91;;;-0.72;66.75
52032;BME280;38044;45.148;39.604;2024-02-28T02:12:51;102062.09;;;-0.70;66.81
52032;BME280;38044;45.148;39.604;2024-02-28T02:15:17;102070.03;;;-0.70;66.76
52032;BME280;38044;45.148;39.604;2024-02-28T02:17:42;102073.03;;;-0.73;67.02
52032;BME280;38044;45.148;39.604;2024-02-28T02:20:10;102067.09;;;-0.75;67.31
52032;BME280;38044;45.148;39.604;2024-02-28T02:22:38;102071.22;;;-0.73;67.38
52032;BME280;38044;45.148;39.604;2024-02-28T02:25:04;102056.44;;;-0.82;67.41
52032;BME280;38044;45.148;39.604;2024-02-28T02:27:30;102066.66;;;-0.79;67.46
52032;BME280;38044;45.148;39.604;2024-02-28T02:29:56;102082.44;;;-0.71;67.55
52032;BME280;38044;45.148;39.604;2024-02-28T02:32:22;102081.31;;;-0.76;67.61
52032;BME280;38044;45.148;39.604;2024-02-28T02:34:48;102082.94;;;-0.75;67.55
52032;BME280;38044;45.148;39.604;2024-02-28T02:37:14;102074.47;;;-0.85;67.77
52032;BME280;38044;45.148;39.604;2024-02-28T02:39:40;102065.44;;;-0.91;67.94
52032;BME280;38044;45.148;39.604;2024-02-28T02:42:06;102071.69;;;-0.92;68.09
52032;BME280;38044;45.148;39.604;2024-02-28T02:44:31;102100.69;;;-0.84;68.26
52032;BME280;38044;45.148;39.604;2024-02-28T02:46:57;102069.13;;;-1.00;68.36
52032;BME280;38044;45.148;39.604;2024-02-28T02:49:23;102096.47;;;-0.93;68.45
52032;BME280;38044;45.148;39.604;2024-02-28T02:51:49;102092.88;;;-1.00;68.53
52032;BME280;38044;45.148;39.604;2024-02-28T02:54:15;102087.84;;;-1.10;68.75
52032;BME280;38044;45.148;39.604;2024-02-28T02:56:43;102104.16;;;-1.06;68.68
52032;BME280;38044;45.148;39.604;2024-02-28T02:59:12;102111.09;;;-1.05;68.74
52032;BME280;38044;45.148;39.604;2024-02-28T03:01:38;102109.47;;;-1.15;69.03
52032;BME280;38044;45.148;39.604;2024-02-28T03:04:04;102117.75;;;-1.18;69.06
52032;BME280;38044;45.148;39.604;2024-02-28T03:06:30;102115.44;;;-1.21;69.23
52032;BME280;38044;45.148;39.604;2024-02-28T03:08:58;102111.53;;;-1.25;69.40
52032;BME280;38044;45.148;39.604;2024-02-28T03:11:23;102088.06;;;-1.43;69.58
52032;BME280;38044;45.148;39.604;2024-02-28T03:13:50;102104.94;;;-1.29;69.76
52032;BME280;38044;45.148;39.604;2024-02-28T03:16:16;102097.94;;;-1.37;69.80
52032;BME280;38044;45.148;39.604;2024-02-28T03:18:42;102105.94;;;-1.30;70.02
52032;BME280;38044;45.148;39.604;2024-02-28T03:21:07;102097.94;;;-1.37;69.84
52032;BME280;38044;45.148;39.604;2024-02-28T03:23:34;102119.84;;;-1.36;70.11
52032;BME280;38044;45.148;39.604;2024-02-28T03:26:02;102116.56;;;-1.38;70.05
52032;BME280;38044;45.148;39.604;2024-02-28T03:28:29;102118.22;;;-1.37;69.98
52032;BME280;38044;45.148;39.604;2024-02-28T03:30:54;102123.00;;;-1.41;70.28
52032;BME280;38044;45.148;39.604;2024-02-28T03:33:20;102124.47;;;-1.38;69.94
52032;BME280;38044;45.148;39.604;2024-02-28T03:35:47;102112.47;;;-1.49;70.11
52032;BME280;38044;45.148;39.604;2024-02-28T03:38:13;102117.59;;;-1.47;70.38
52032;BME280;38044;45.148;39.604;2024-02-28T03:40:39;102110.19;;;-1.52;70.25
52032;BME280;38044;45.148;39.604;2024-02-28T03:43:05;102122.72;;;-1.46;70.46
52032;BME280;38044;45.148;39.604;2024-02-28T03:45:31;102128.81;;;-1.45;70.34
52032;BME280;38044;45.148;39.604;2024-02-28T03:48:02;102131.78;;;-1.48;70.44
52032;BME280;38044;45.148;39.604;2024-02-28T03:50:28;102117.47;;;-1.54;70.51
52032;BME280;38044;45.148;39.604;2024-02-28T03:52:54;102121.94;;;-1.54;70.84
52032;BME280;38044;45.148;39.604;2024-02-28T03:55:19;102111.06;;;-1.60;70.54
52032;BME280;38044;45.148;39.604;2024-02-28T03:57:48;102134.78;;;-1.51;70.77
52032;BME280;38044;45.148;39.604;2024-02-28T04:00:17;102122.59;;;-1.61;70.79
52032;BME280;38044;45.148;39.604;2024-02-28T04:02:44;102141.72;;;-1.59;70.84
52032;BME280;38044;45.148;39.604;2024-02-28T04:05:10;102141.25;;;-1.62;71.04
52032;BME280;38044;45.148;39.604;2024-02-28T04:07:35;102134.13;;;-1.53;71.14
52032;BME280;38044;45.148;39.604;2024-02-28T04:10:01;102133.13;;;-1.61;71.03
52032;BME280;38044;45.148;39.604;2024-02-28T04:12:29;102151.91;;;-1.55;71.04
52032;BME280;38044;45.148;39.604;2024-02-28T04:14:55;102122.09;;;-1.56;70.93
52032;BME280;38044;45.148;39.604;2024-02-28T04:17:21;102141.00;;;-1.44;71.03
52032;BME280;38044;45.148;39.604;2024-02-28T04:19:47;102138.81;;;-1.41;70.93
52032;BME280;38044;45.148;39.604;2024-02-28T04:22:13;102143.28;;;-1.41;70.92
52032;BME280;38044;45.148;39.604;2024-02-28T04:24:39;102145.53;;;-1.30;71.01
52032;BME280;38044;45.148;39.604;2024-02-28T04:27:05;102154.56;;;-1.24;70.50
52032;BME280;38044;45.148;39.604;2024-02-28T04:29:31;102127.72;;;-1.28;70.35
52032;BME280;38044;45.148;39.604;2024-02-28T04:31:57;102157.06;;;-1.00;69.82
52032;BME280;38044;45.148;39.604;2024-02-28T04:34:23;102159.06;;;-0.79;69.52
52032;BME280;38044;45.148;39.604;2024-02-28T04:36:49;102148.59;;;-0.11;67.46
52032;BME280;38044;45.148;39.604;2024-02-28T04:39:14;102152.00;;;0.63;65.50
52032;BME280;38044;45.148;39.604;2024-02-28T04:41:40;102163.78;;;1.40;63.56
52032;BME280;38044;45.148;39.604;2024-02-28T04:44:06;102167.22;;;1.90;61.46
52032;BME280;38044;45.148;39.604;2024-02-28T04:46:34;102181.66;;;2.51;59.65
52032;BME280;38044;45.148;39.604;2024-02-28T04:49:00;102168.13;;;3.00;57.52
52032;BME280;38044;45.148;39.604;2024-02-28T04:51:25;102168.22;;;3.73;55.91
52032;BME280;38044;45.148;39.604;2024-02-28T04:53:51;102181.16;;;4.48;53.75
52032;BME280;38044;45.148;39.604;2024-02-28T04:56:17;102193.25;;;4.95;52.27
52032;BME280;38044;45.148;39.604;2024-02-28T04:58:43;102197.41;;;5.16;51.47
52032;BME280;38044;45.148;39.604;2024-02-28T05:01:09;102200.03;;;5.80;50.49
52032;BME280;38044;45.148;39.604;2024-02-28T05:03:34;102189.44;;;6.17;48.67
52032;BME280;38044;45.148;39.604;2024-02-28T05:06:00;102200.00;;;6.30;48.17
52032;BME280;38044;45.148;39.604;2024-02-28T05:08:26;102197.63;;;6.40;47.85
52032;BME280;38044;45.148;39.604;2024-02-28T05:10:54;102212.84;;;6.58;47.33
52032;BME280;38044;45.148;39.604;2024-02-28T05:13:19;102218.75;;;7.09;46.58
52032;BME280;38044;45.148;39.604;2024-02-28T05:15:47;102216.06;;;7.27;45.73
52032;BME280;38044;45.148;39.604;2024-02-28T05:18:13;102221.28;;;7.76;44.52
52032;BME280;38044;45.148;39.604;2024-02-28T05:20:39;102216.50;;;8.01;44.02
52032;BME280;38044;45.148;39.604;2024-02-28T05:23:05;102213.81;;;7.89;43.56
52032;BME280;38044;45.148;39.604;2024-02-28T05:25:31;102221.94;;;7.71;43.80
52032;BME280;38044;45.148;39.604;2024-02-28T05:27:57;102209.84;;;7.57;44.25
52032;BME280;38044;45.148;39.604;2024-02-28T05:30:23;102218.81;;;7.74;44.59
52032;BME280;38044;45.148;39.604;2024-02-28T05:32:48;102212.78;;;7.90;43.46
52032;BME280;38044;45.148;39.604;2024-02-28T05:35:15;102227.31;;;8.18;43.33
52032;BME280;38044;45.148;39.604;2024-02-28T05:37:41;102231.06;;;8.17;43.26
52032;BME280;38044;45.148;39.604;2024-02-28T05:40:08;102224.19;;;8.45;43.03
52032;BME280;38044;45.148;39.604;2024-02-28T05:42:34;102242.53;;;8.76;42.13
52032;BME280;38044;45.148;39.604;2024-02-28T05:45:00;102235.03;;;8.90;42.35
52032;BME280;38044;45.148;39.604;2024-02-28T05:47:26;102212.28;;;8.93;42.03
52032;BME280;38044;45.148;39.604;2024-02-28T05:49:53;102220.69;;;9.42;40.95
52032;BME280;38044;45.148;39.604;2024-02-28T05:52:21;102236.44;;;9.38;41.48
52032;BME280;38044;45.148;39.604;2024-02-28T05:54:47;102230.88;;;9.74;40.75
52032;BME280;38044;45.148;39.604;2024-02-28T05:57:13;102225.22;;;9.58;40.67
52032;BME280;38044;45.148;39.604;2024-02-28T05:59:39;102233.88;;;9.60;40.52
52032;BME280;38044;45.148;39.604;2024-02-28T06:02:05;102222.22;;;9.38;41.40
52032;BME280;38044;45.148;39.604;2024-02-28T06:04:31;102228.97;;;9.57;40.80
52032;BME280;38044;45.148;39.604;2024-02-28T06:06:57;102228.69;;;9.70;40.47
52032;BME280;38044;45.148;39.604;2024-02-28T06:09:22;102216.59;;;9.90;40.45
52032;BME280;38044;45.148;39.604;2024-02-28T06:11:48;102227.72;;;10.15;39.90
52032;BME280;38044;45.148;39.604;2024-02-28T06:14:14;102232.69;;;10.24;39.53
52032;BME280;38044;45.148;39.604;2024-02-28T06:16:40;102252.25;;;10.02;39.76
52032;BME280;38044;45.148;39.604;2024-02-28T06:19:06;102243.91;;;10.37;39.60
52032;BME280;38044;45.148;39.604;2024-02-28T06:21:32;102231.75;;;9.96;39.85
52032;BME280;38044;45.148;39.604;2024-02-28T06:23:58;102233.34;;;10.31;39.60
52032;BME280;38044;45.148;39.604;2024-02-28T06:26:23;102237.34;;;10.11;39.51
52032;BME280;38044;45.148;39.604;2024-02-28T06:28:49;102243.88;;;9.99;40.15
52032;BME280;38044;45.148;39.604;2024-02-28T06:31:17;102231.06;;;10.23;39.62
52032;BME280;38044;45.148;39.604;2024-02-28T06:33:43;102248.00;;;10.06;40.11
52032;BME280;38044;45.148;39.604;2024-02-28T06:36:09;102238.25;;;10.34;39.68
52032;BME280;38044;45.148;39.604;2024-02-28T06:38:35;102244.34;;;10.29;39.39
52032;BME280;38044;45.148;39.604;2024-02-28T06:41:03;102252.78;;;10.21;39.64
52032;BME280;38044;45.148;39.604;2024-02-28T06:43:32;102258.34;;;10.14;39.76
52032;BME280;38044;45.148;39.604;2024-02-28T06:45:58;102229.59;;;10.32;39.29
52032;BME280;38044;45.148;39.604;2024-02-28T06:48:24;102240.13;;;10.55;39.24
52032;BME280;38044;45.148;39.604;2024-02-28T06:50:50;102240.56;;;10.69;39.31
52032;BME280;38044;45.148;39.604;2024-02-28T06:53:15;102249.00;;;11.00;38.76
52032;BME280;38044;45.148;39.604;2024-02-28T06:55:42;102258.75;;;10.84;38.72
52032;BME280;38044;45.148;39.604;2024-02-28T06:58:09;102253.56;;;10.33;39.68
52032;BME280;38044;45.148;39.604;2024-02-28T07:00:35;102234.63;;;10.45;39.08
52032;BME280;38044;45.148;39.604;2024-02-28T07:03:01;102251.00;;;10.10;40.25
52032;BME280;38044;45.148;39.604;2024-02-28T07:05:27;102260.94;;;10.09;40.94
52032;BME280;38044;45.148;39.604;2024-02-28T07:07:53;102264.09;;;10.57;39.73
52032;BME280;38044;45.148;39.604;2024-02-28T07:10:19;102256.47;;;9.81;40.65
52032;BME280;38044;45.148;39.604;2024-02-28T07:12:44;102245.50;;;8.40;43.08
52032;BME280;38044;45.148;39.604;2024-02-28T07:15:10;102261.22;;;8.36;44.33
52032;BME280;38044;45.148;39.604;2024-02-28T07:17:36;102241.16;;;9.02;43.63
52032;BME280;38044;45.148;39.604;2024-02-28T07:20:02;102253.78;;;10.32;41.26
52032;BME280;38044;45.148;39.604;2024-02-28T07:22:28;102244.88;;;10.92;39.23
52032;BME280;38044;45.148;39.604;2024-02-28T07:24:54;102257.00;;;10.95;39.32
52032;BME280;38044;45.148;39.604;2024-02-28T07:27:22;102262.84;;;11.68;39.12
52032;BME280;38044;45.148;39.604;2024-02-28T07:29:49;102250.81;;;11.81;38.52
52032;BME280;38044;45.148;39.604;2024-02-28T07:32:15;102251.84;;;12.07;37.94
52032;BME280;38044;45.148;39.604;2024-02-28T07:34:41;102251.19;;;11.89;37.55
52032;BME280;38044;45.148;39.604;2024-02-28T07:37:07;102253.69;;;11.69;38.57
52032;BME280;38044;45.148;39.604;2024-02-28T07:39:33;102244.22;;;11.93;37.76
52032;BME280;38044;45.148;39.604;2024-02-28T07:41:59;102259.56;;;12.35;37.85
52032;BME280;38044;45.148;39.604;2024-02-28T07:44:25;102236.41;;;12.39;38.07
52032;BME280;38044;45.148;39.604;2024-02-28T07:46:51;102244.63;;;12.65;37.27
52032;BME280;38044;45.148;39.604;2024-02-28T07:49:17;102252.25;;;12.83;36.88
52032;BME280;38044;45.148;39.604;2024-02-28T07:51:43;102239.38;;;13.16;36.18
52032;BME280;38044;45.148;39.604;2024-02-28T07:54:09;102259.16;;;12.64;36.64
52032;BME280;38044;45.148;39.604;2024-02-28T07:56:35;102258.94;;;12.71;36.74
52032;BME280;38044;45.148;39.604;2024-02-28T07:59:01;102263.28;;;12.24;37.34
52032;BME280;38044;45.148;39.604;2024-02-28T08:01:27;102268.25;;;12.43;37.33
52032;BME280;38044;45.148;39.604;2024-02-28T08:03:53;102273.69;;;12.53;36.93
52032;BME280;38044;45.148;39.604;2024-02-28T08:06:19;102263.91;;;12.42;37.25
52032;BME280;38044;45.148;39.604;2024-02-28T08:08:45;102265.81;;;12.41;37.50
52032;BME280;38044;45.148;39.604;2024-02-28T08:11:14;102266.03;;;12.34;37.88
52032;BME280;38044;45.148;39.604;2024-02-28T08:13:40;102278.38;;;12.73;37.20
52032;BME280;38044;45.148;39.604;2024-02-28T08:16:06;102260.25;;;12.63;37.30
52032;BME280;38044;45.148;39.604;2024-02-28T08:18:34;102267.81;;;12.66;37.36
52032;BME280;38044;45.148;39.604;2024-02-28T08:21:00;102268.06;;;12.59;37.19
52032;BME280;38044;45.148;39.604;2024-02-28T08:23:29;102301.41;;;12.91;36.71
52032;BME280;38044;45.148;39.604;2024-02-28T08:25:55;102270.56;;;12.71;37.13
52032;BME280;38044;45.148;39.604;2024-02-28T08:28:21;102266.56;;;12.89;37.13
52032;BME280;38044;45.148;39.604;2024-02-28T08:30:47;102281.59;;;13.43;36.67
52032;BME280;38044;45.148;39.604;2024-02-28T08:33:13;102270.81;;;13.73;35.82
52032;BME280;38044;45.148;39.604;2024-02-28T08:35:39;102266.38;;;13.11;36.40
52032;BME280;38044;45.148;39.604;2024-02-28T08:38:05;102272.28;;;13.03;36.23
52032;BME280;38044;45.148;39.604;2024-02-28T08:40:31;102268.88;;;12.60;37.82
52032;BME280;38044;45.148;39.604;2024-02-28T08:42:57;102242.91;;;13.17;36.11
52032;BME280;38044;45.148;39.604;2024-02-28T08:45:23;102272.81;;;13.10;36.64
52032;BME280;38044;45.148;39.604;2024-02-28T08:47:49;102243.00;;;12.64;37.40
52032;BME280;38044;45.148;39.604;2024-02-28T08:50:15;102252.28;;;12.94;37.01
52032;BME280;38044;45.148;39.604;2024-02-28T08:52:40;102251.75;;;13.07;36.58
52032;BME280;38044;45.148;39.604;2024-02-28T08:55:07;102258.50;;;12.94;37.82
52032;BME280;38044;45.148;39.604;2024-02-28T08:57:32;102259.94;;;13.33;36.84
52032;BME280;38044;45.148;39.604;2024-02-28T08:59:59;102239.41;;;13.26;35.98
52032;BME280;38044;45.148;39.604;2024-02-28T09:02:25;102244.56;;;13.28;36.64
52032;BME280;38044;45.148;39.604;2024-02-28T09:04:51;102238.34;;;13.33;36.44
52032;BME280;38044;45.148;39.604;2024-02-28T09:07:18;102249.44;;;13.46;35.39
52032;BME280;38044;45.148;39.604;2024-02-28T09:09:47;102249.09;;;13.12;36.51
52032;BME280;38044;45.148;39.604;2024-02-28T09:12:13;102243.13;;;13.05;36.25
52032;BME280;38044;45.148;39.604;2024-02-28T09:14:39;102236.09;;;12.99;36.50
52032;BME280;38044;45.148;39.604;2024-02-28T09:17:05;102249.81;;;12.87;37.60
52032;BME280;38044;45.148;39.604;2024-02-28T09:19:31;102244.19;;;13.04;36.96
52032;BME280;38044;45.148;39.604;2024-02-28T09:21:58;102244.03;;;13.41;36.54
52032;BME280;38044;45.148;39.604;2024-02-28T09:24:24;102256.75;;;13.51;37.29
52032;BME280;38044;45.148;39.604;2024-02-28T09:26:50;102265.94;;;13.91;35.30
52032;BME280;38044;45.148;39.604;2024-02-28T09:29:16;102260.44;;;13.19;36.35
52032;BME280;38044;45.148;39.604;2024-02-28T09:31:42;102252.34;;;13.24;36.29
52032;BME280;38044;45.148;39.604;2024-02-28T09:34:07;102248.59;;;13.25;37.41
52032;BME280;38044;45.148;39.604;2024-02-28T09:36:44;102254.03;;;13.61;36.42
52032;BME280;38044;45.148;39.604;2024-02-28T09:39:14;102252.97;;;13.62;36.46
52032;BME280;38044;45.148;39.604;2024-02-28T09:41:46;102254.84;;;13.77;36.26
52032;BME280;38044;45.148;39.604;2024-02-28T09:44:16;102248.09;;;13.49;36.32
52032;BME280;38044;45.148;39.604;2024-02-28T09:46:41;102234.00;;;13.26;36.07
52032;BME280;38044;45.148;39.604;2024-02-28T09:49:09;102239.34;;;13.01;36.07
52032;BME280;38044;45.148;39.604;2024-02-28T09:51:36;102228.91;;;12.52;37.36
52032;BME280;38044;45.148;39.604;2024-02-28T09:54:05;102239.38;;;13.11;36.95
52032;BME280;38044;45.148;39.604;2024-02-28T09:56:31;102236.13;;;13.14;36.32
52032;BME280;38044;45.148;39.604;2024-02-28T09:58:58;102240.31;;;12.69;38.01
52032;BME280;38044;45.148;39.604;2024-02-28T10:01:25;102251.50;;;13.08;36.61
52032;BME280;38044;45.148;39.604;2024-02-28T10:03:52;102239.38;;;13.21;36.53
52032;BME280;38044;45.148;39.604;2024-02-28T10:06:20;102225.72;;;12.70;36.98
52032;BME280;38044;45.148;39.604;2024-02-28T10:08:45;102230.06;;;12.71;37.19
52032;BME280;38044;45.148;39.604;2024-02-28T10:11:22;102218.25;;;12.93;37.33
52032;BME280;38044;45.148;39.604;2024-02-28T10:13:49;102226.94;;;13.15;36.82
52032;BME280;38044;45.148;39.604;2024-02-28T10:16:15;102225.81;;;12.96;37.51
52032;BME280;38044;45.148;39.604;2024-02-28T10:18:51;102217.25;;;13.19;37.29
52032;BME280;38044;45.148;39.604;2024-02-28T10:21:17;102205.63;;;13.14;36.20
52032;BME280;38044;45.148;39.604;2024-02-28T10:23:44;102230.66;;;12.83;37.34
52032;BME280;38044;45.148;39.604;2024-02-28T10:26:10;102212.84;;;12.82;37.01
52032;BME280;38044;45.148;39.604;2024-02-28T10:28:40;102207.75;;;12.91;36.63
52032;BME280;38044;45.148;39.604;2024-02-28T10:31:07;102210.69;;;12.90;36.63
52032;BME280;38044;45.148;39.604;2024-02-28T10:33:33;102206.34;;;12.78;37.24
52032;BME280;38044;45.148;39.604;2024-02-28T10:36:02;102200.97;;;12.89;36.45
52032;BME280;38044;45.148;39.604;2024-02-28T10:38:30;102215.19;;;12.53;37.26
52032;BME280;38044;45.148;39.604;2024-02-28T10:41:02;102209.97;;;12.36;37.01
52032;BME280;38044;45.148;39.604;2024-02-28T10:43:29;102215.69;;;11.98;38.18
52032;BME280;38044;45.148;39.604;2024-02-28T10:45:59;102213.50;;;11.94;37.87
52032;BME280;38044;45.148;39.604;2024-02-28T10:48:28;102201.16;;;11.66;38.86
52032;BME280;38044;45.148;39.604;2024-02-28T10:50:54;102210.03;;;11.67;38.22
52032;BME280;38044;45.148;39.604;2024-02-28T10:53:37;102209.97;;;11.57;38.77
52032;BME280;38044;45.148;39.604;2024-02-28T10:56:05;102195.31;;;11.15;39.83
52032;BME280;38044;45.148;39.604;2024-02-28T10:58:35;102209.09;;;11.19;39.66
52032;BME280;38044;45.148;39.604;2024-02-28T11:01:04;102199.19;;;10.97;39.10
52032;BME280;38044;45.148;39.604;2024-02-28T11:03:31;102189.28;;;10.76;40.09
52032;BME280;38044;45.148;39.604;2024-02-28T11:05:57;102186.69;;;10.86;39.79
52032;BME280;38044;45.148;39.604;2024-02-28T11:08:24;102187.03;;;10.68;39.89
52032;BME280;38044;45.148;39.604;2024-02-28T11:11:03;102184.34;;;10.68;39.28
52032;BME280;38044;45.148;39.604;2024-02-28T11:13:30;102187.19;;;10.56;39.82
52032;BME280;38044;45.148;39.604;2024-02-28T11:16:09;102170.41;;;10.49;39.34
52032;BME280;38044;45.148;39.604;2024-02-28T11:18:35;102182.16;;;10.43;40.26
52032;BME280;38044;45.148;39.604;2024-02-28T11:21:01;102184.03;;;10.64;40.21
52032;BME280;38044;45.148;39.604;2024-02-28T11:23:36;102179.63;;;10.80;39.73
52032;BME280;38044;45.148;39.604;2024-02-28T11:26:03;102189.72;;;10.68;39.83
52032;BME280;38044;45.148;39.604;2024-02-28T11:28:29;102175.06;;;10.58;39.83
52032;BME280;38044;45.148;39.604;2024-02-28T11:30:55;102170.91;;;10.68;39.64
52032;BME280;38044;45.148;39.604;2024-02-28T11:33:21;102166.69;;;10.77;39.56
52032;BME280;38044;45.148;39.604;2024-02-28T11:35:57;102182.91;;;10.87;39.45
52032;BME280;38044;45.148;39.604;2024-02-28T11:38:26;102166.19;;;10.80;39.18
52032;BME280;38044;45.148;39.604;2024-02-28T11:40:53;102155.44;;;10.80;39.19
52032;BME280;38044;45.148;39.604;2024-02-28T11:43:19;102169.44;;;10.82;39.01
52032;BME280;38044;45.148;39.604;2024-02-28T11:45:45;102160.34;;;10.88;39.67
52032;BME280;38044;45.148;39.604;2024-02-28T11:48:16;102145.06;;;10.94;40.02
52032;BME280;38044;45.148;39.604;2024-02-28T11:50:42;102156.66;;;10.94;39.32
52032;BME280;38044;45.148;39.604;2024-02-28T11:53:08;102171.78;;;11.00;40.79
52032;BME280;38044;45.148;39.604;2024-02-28T11:55:34;102167.47;;;10.99;38.95
52032;BME280;38044;45.148;39.604;2024-02-28T11:58:01;102176.03;;;10.96;39.50
52032;BME280;38044;45.148;39.604;2024-02-28T12:00:27;102175.59;;;11.04;38.62
52032;BME280;38044;45.148;39.604;2024-02-28T12:03:04;102173.50;;;11.12;38.36
52032;BME280;38044;45.148;39.604;2024-02-28T12:05:30;102160.94;;;10.95;38.94
52032;BME280;38044;45.148;39.604;2024-02-28T12:07:56;102150.75;;;10.97;39.41
52032;BME280;38044;45.148;39.604;2024-02-28T12:10:24;102163.19;;;11.03;38.77
52032;BME280;38044;45.148;39.604;2024-02-28T12:12:50;102163.13;;;10.98;38.60
52032;BME280;38044;45.148;39.604;2024-02-28T12:15:16;102154.59;;;11.07;38.94
52032;BME280;38044;45.148;39.604;2024-02-28T12:17:43;102168.63;;;11.09;39.18
52032;BME280;38044;45.148;39.604;2024-02-28T12:20:09;102164.03;;;11.09;38.39
52032;BME280;38044;45.148;39.604;2024-02-28T12:22:35;102157.34;;;11.12;38.54
52032;BME280;38044;45.148;39.604;2024-02-28T12:25:01;102158.16;;;11.12;38.51
52032;BME280;38044;45.148;39.604;2024-02-28T12:27:30;102146.81;;;11.05;38.64
52032;BME280;38044;45.148;39.604;2024-02-28T12:29:59;102156.75;;;11.04;38.99
52032;BME280;38044;45.148;39.604;2024-02-28T12:32:25;102150.03;;;11.07;38.82
52032;BME280;38044;45.148;39.604;2024-02-28T12:34:51;102156.94;;;11.25;38.06
52032;BME280;38044;45.148;39.604;2024-02-28T12:37:16;102147.69;;;11.16;38.43
52032;BME280;38044;45.148;39.604;2024-02-28T12:39:43;102152.19;;;11.05;38.55